.
WxDataArchive / Data Records for 2014-05-03
2014-05-02 May 2014 2014-05-04

Data Records for Saturday, 03 May 2014

Time	Temp	Chill	HIndex	Humid	Dewpt	 Wind 	HiWind	WindDir	Rain 	Barom
-----	----	-----	------	-----	-----	------	------	-------	-----	-----
00:00	48.0	48.0	48.0	84	43.4	1	4	270	0.00	29.807 
00:05	48.0	48.0	48.0	84	43.4	0	3	270	0.00	29.807 
00:10	48.0	48.0	48.0	84	43.4	0	2	270	0.00	29.807 
00:15	48.0	48.0	48.0	84	43.4	0	2	270	0.00	29.804 
00:20	48.0	48.0	48.0	84	43.4	0	2	270	0.00	29.804 
00:25	48.0	48.0	48.0	84	43.4	0	1	270	0.00	29.804 
00:30	47.9	47.9	47.9	85	43.6	0	1	270	0.00	29.803 
00:35	47.9	47.9	47.9	84	43.3	0	3	270	0.00	29.803 
00:40	47.9	47.9	47.9	84	43.3	1	3	270	0.00	29.803 
00:45	48.0	48.0	48.0	84	43.4	0	2	270	0.00	29.801 
00:50	48.0	48.0	48.0	84	43.4	0	2	270	0.00	29.801 
00:55	48.0	48.0	48.0	84	43.4	1	3	270	0.00	29.801 
01:00	48.0	48.0	48.0	84	43.4	0	1	270	0.00	29.797 
01:05	48.0	48.0	48.0	84	43.4	0	2	270	0.00	29.797 
01:10	48.0	48.0	48.0	84	43.4	0	2	270	0.00	29.797 
01:15	48.0	48.0	48.0	84	43.4	0	2	270	0.00	29.794 
01:20	48.0	48.0	48.0	84	43.4	0	3	270	0.00	29.794 
01:25	48.0	48.0	48.0	84	43.4	1	9	90	0.00	29.794 
01:30	47.9	47.9	47.9	84	43.3	0	2	90	0.00	29.791 
01:35	47.9	47.9	47.9	84	43.3	0	1	90	0.00	29.791 
01:40	47.9	47.9	47.9	84	43.3	0	2	90	0.00	29.791 
01:45	47.9	47.9	47.9	84	43.3	0	2	90	0.00	29.788 
01:50	47.9	47.9	47.9	83	43.0	0	1	90	0.00	29.788 
01:55	47.9	47.9	47.9	83	43.0	0	2	90	0.00	29.788 
02:00	47.9	47.9	47.9	83	43.0	1	3	90	0.00	29.784 
02:05	47.9	47.9	47.9	83	43.0	1	2	270	0.00	29.784 
02:10	47.9	47.9	47.9	83	43.0	0	2	270	0.00	29.784 
02:15	47.9	47.9	47.9	83	43.0	1	4	270	0.00	29.772 
02:20	47.9	47.9	47.9	83	43.0	1	3	270	0.00	29.772 
02:25	47.9	47.9	47.9	83	43.0	1	3	270	0.00	29.772 
02:30	47.9	47.9	47.9	83	43.0	0	3	270	0.00	29.768 
02:35	47.9	47.9	47.9	83	43.0	0	2	270	0.00	29.768 
02:40	47.7	47.7	47.7	83	42.8	0	2	270	0.00	29.768 
02:45	47.7	47.7	47.7	83	42.8	0	2	270	0.00	29.764 
02:50	47.6	47.6	47.6	83	42.7	0	3	270	0.00	29.764 
02:55	47.6	47.6	47.6	83	42.7	0	2	270	0.00	29.764 
03:00	47.6	47.6	47.6	83	42.7	0	2	270	0.00	29.760 
03:05	47.6	47.6	47.6	83	42.7	0	2	270	0.00	29.760 
03:10	47.6	47.6	47.6	83	42.7	0	2	270	0.00	29.760 
03:15	47.4	47.4	47.4	83	42.5	0	2	270	0.00	29.752 
03:20	47.4	47.4	47.4	83	42.5	0	1	270	0.00	29.752 
03:25	47.3	47.3	47.3	83	42.4	0	2	270	0.00	29.752 
03:30	47.3	47.3	47.3	83	42.4	0	2	270	0.00	29.747 
03:35	47.1	47.1	47.1	83	42.2	0	3	270	0.00	29.747 
03:40	47.0	47.0	47.0	83	42.1	0	2	270	0.00	29.747 
03:45	47.0	47.0	47.0	84	42.4	0	1	270	0.00	29.737 
03:50	46.8	46.8	46.8	84	42.2	0	1	270	0.00	29.737 
03:55	46.7	46.7	46.7	84	42.1	0	1	270	0.00	29.737 
04:00	46.5	46.5	46.5	84	41.9	0	1	270	0.00	29.727 
04:05	46.4	46.4	46.4	84	41.8	0	1	270	0.00	29.727 
04:10	46.4	46.4	46.4	84	41.8	0	2	270	0.00	29.727 
04:15	46.5	46.5	46.5	85	42.2	0	1	270	0.00	29.735 
04:20	46.7	46.7	46.7	85	42.4	0	1	270	0.00	29.735 
04:25	46.8	46.8	46.8	85	42.5	0	2	270	0.00	29.735 
04:30	46.8	46.8	46.8	84	42.2	0	3	270	0.00	29.727 
04:35	47.0	47.0	47.0	84	42.4	0	2	270	0.00	29.727 
04:40	47.1	47.1	47.1	84	42.5	0	2	270	0.00	29.727 
04:45	47.1	47.1	47.1	83	42.2	0	2	270	0.00	29.722 
04:50	47.1	47.1	47.1	83	42.2	0	2	270	0.00	29.722 
04:55	47.1	47.1	47.1	83	42.2	0	2	270	0.00	29.722 
05:00	47.1	47.1	47.1	83	42.2	0	3	270	0.00	29.719 
05:05	47.1	47.1	47.1	83	42.2	0	2	270	0.00	29.719 
05:10	47.1	47.1	47.1	83	42.2	0	3	270	0.00	29.719 
05:15	47.1	47.1	47.1	83	42.2	0	2	270	0.00	29.707 
05:20	47.1	47.1	47.1	83	42.2	1	6	270	0.00	29.707 
05:25	47.1	47.1	47.1	83	42.2	1	3	112	0.00	29.707 
05:30	47.1	47.1	47.1	84	42.5	1	4	68	0.00	29.702 
05:35	47.1	47.1	47.1	84	42.5	0	2	68	0.00	29.702 
05:40	47.1	47.1	47.1	84	42.5	1	3	68	0.00	29.702 
05:45	47.1	47.1	47.1	84	42.5	1	3	68	0.00	29.696 
05:50	47.1	47.1	47.1	84	42.5	0	5	90	0.00	29.696 
05:55	47.1	47.1	47.1	83	42.2	0	3	248	0.00	29.696 
06:00	47.3	47.3	47.3	83	42.4	0	2	248	0.00	29.695 
06:05	47.3	47.3	47.3	83	42.4	1	3	248	0.00	29.695 
06:10	47.3	47.3	47.3	83	42.4	1	3	248	0.00	29.695 
06:15	47.3	47.3	47.3	82	42.1	1	3	248	0.00	29.694 
06:20	47.4	47.4	47.4	82	42.2	1	4	112	0.00	29.694 
06:25	47.4	47.4	47.4	81	41.9	1	5	90	0.00	29.694 
06:30	47.6	47.6	47.6	80	41.7	1	3	248	0.00	29.694 
06:35	47.9	47.9	47.9	79	41.7	1	5	248	0.00	29.694 
06:40	48.0	48.0	48.0	78	41.5	1	6	248	0.00	29.694 
06:45	48.2	48.2	48.2	77	41.3	0	3	248	0.00	29.693 
06:50	48.2	48.2	48.2	77	41.3	0	4	248	0.00	29.693 
06:55	48.2	48.2	48.2	77	41.3	1	4	248	0.00	29.693 
07:00	48.0	48.0	48.0	77	41.1	1	3	270	0.00	29.691 
07:05	48.0	48.0	48.0	77	41.1	1	3	270	0.00	29.691 
07:10	48.2	48.2	48.2	76	41.0	1	4	270	0.00	29.691 
07:15	48.2	48.2	48.2	76	41.0	1	4	248	0.00	29.693 
07:20	48.2	48.2	48.2	76	41.0	1	4	248	0.00	29.693 
07:25	48.2	48.2	48.2	76	41.0	1	3	248	0.00	29.693 
07:30	48.2	48.2	48.2	76	41.0	1	5	248	0.00	29.694 
07:35	48.3	48.3	48.3	76	41.1	1	5	248	0.00	29.694 
07:40	48.3	48.3	48.3	76	41.1	1	5	270	0.00	29.694 
07:45	48.5	48.5	48.5	76	41.3	1	4	270	0.00	29.693 
07:50	48.5	48.5	48.5	76	41.3	1	3	270	0.00	29.693 
07:55	48.9	48.9	48.9	76	41.7	1	4	248	0.00	29.693 
08:00	49.2	49.2	49.2	74	41.3	2	4	248	0.00	29.694 
08:05	49.6	49.6	49.6	74	41.7	1	6	270	0.00	29.694 
08:10	49.9	49.9	49.9	73	41.6	1	4	248	0.00	29.694 
08:15	50.2	50.2	50.2	72	41.5	2	5	248	0.00	29.694 
08:20	50.5	50.5	50.5	71	41.5	2	5	248	0.00	29.694 
08:25	50.8	50.8	50.8	71	41.7	1	5	248	0.00	29.694 
08:30	51.1	51.1	51.1	70	41.7	2	7	248	0.00	29.691 
08:35	51.6	51.6	51.6	69	41.8	1	4	270	0.00	29.691 
08:40	51.9	51.9	51.9	68	41.7	2	7	248	0.00	29.691 
08:45	52.0	52.0	52.0	68	41.8	2	7	248	0.00	29.690 
08:50	52.2	52.2	52.2	67	41.6	3	7	248	0.00	29.690 
08:55	52.5	52.5	52.5	67	41.9	3	6	248	0.00	29.690 
09:00	52.9	52.9	52.9	67	42.2	2	4	248	0.00	29.689 
09:05	53.2	53.2	53.2	65	41.7	2	6	248	0.00	29.689 
09:10	53.6	53.6	53.6	65	42.1	2	7	270	0.00	29.689 
09:15	53.9	53.9	53.9	65	42.4	2	7	248	0.00	29.690 
09:20	54.2	54.2	54.2	65	42.7	2	5	248	0.00	29.690 
09:25	54.4	54.4	54.4	63	42.1	3	6	248	0.00	29.690 
09:30	54.5	54.5	54.5	63	42.2	2	7	270	0.00	29.688 
09:35	55.0	55.0	55.0	63	42.6	2	7	270	0.00	29.688 
09:40	55.3	55.3	55.3	62	42.5	2	5	270	0.00	29.688 
09:45	55.0	55.0	55.0	62	42.2	3	6	248	0.00	29.689 
09:50	54.5	54.5	54.5	63	42.2	2	6	248	0.00	29.689 
09:55	54.2	54.2	54.2	64	42.3	2	5	292	0.00	29.689 
10:00	53.9	53.9	53.9	65	42.4	3	6	270	0.00	29.695 
10:05	53.9	53.9	53.9	65	42.4	2	5	248	0.00	29.695 
10:10	54.1	54.1	54.1	65	42.6	3	6	248	0.00	29.695 
10:15	54.2	54.2	54.2	65	42.7	3	7	248	0.00	29.695 
10:20	54.2	54.2	54.2	64	42.3	4	8	270	0.00	29.695 
10:25	54.4	54.4	54.4	66	43.3	3	7	270	0.00	29.695 
10:30	55.1	55.1	55.1	64	43.1	3	7	248	0.00	29.692 
10:35	55.9	55.9	55.9	64	43.9	3	9	248	0.00	29.692 
10:40	56.3	56.3	56.3	62	43.4	3	9	270	0.00	29.692 
10:45	56.5	56.5	56.5	62	43.6	3	6	248	0.00	29.697 
10:50	56.3	56.3	56.3	62	43.4	3	6	270	0.00	29.697 
10:55	56.3	56.3	56.3	63	43.9	2	7	248	0.00	29.697 
11:00	56.2	56.2	56.2	62	43.4	4	7	248	0.00	29.701 
11:05	55.9	55.9	55.9	63	43.5	2	6	248	0.00	29.701 
11:10	55.7	55.7	55.7	63	43.3	3	6	270	0.00	29.701 
11:15	55.6	55.6	55.6	64	43.6	3	6	270	0.00	29.704 
11:20	55.4	55.4	55.4	64	43.4	3	7	248	0.00	29.704 
11:25	56.0	56.0	56.0	63	43.6	5	10	270	0.00	29.704 
11:30	56.0	56.0	56.0	62	43.2	4	11	270	0.00	29.710 
11:35	55.9	55.9	55.9	63	43.5	3	6	248	0.00	29.710 
11:40	55.7	55.7	55.7	63	43.3	3	5	270	0.00	29.710 
11:45	55.9	55.9	55.9	63	43.5	4	9	270	0.00	29.715 
11:50	56.5	56.5	56.5	62	43.6	4	7	270	0.00	29.715 
11:55	56.7	56.7	56.7	61	43.4	4	9	270	0.00	29.715 
12:00	56.5	56.5	56.5	62	43.6	3	7	270	0.00	29.725 
12:05	56.3	56.3	56.3	62	43.4	3	5	270	0.00	29.725 
12:10	56.3	56.3	56.3	63	43.9	2	6	292	0.00	29.725 
12:15	56.9	56.9	56.9	62	44.0	3	14	270	0.00	29.732 
12:20	57.0	57.0	57.0	61	43.7	3	6	270	0.00	29.732 
12:25	57.0	57.0	57.0	60	43.3	3	5	248	0.00	29.732 
12:30	57.0	57.0	57.0	61	43.7	3	6	248	0.00	29.735 
12:35	57.0	57.0	57.0	59	42.8	4	7	270	0.00	29.735 
12:40	56.9	56.9	56.9	60	43.2	4	7	270	0.00	29.735 
12:45	57.0	57.0	57.0	60	43.3	4	7	270	0.00	29.740 
12:50	57.2	57.2	57.2	60	43.4	3	7	270	0.00	29.740 
12:55	57.3	57.3	57.3	61	44.0	4	10	270	0.00	29.740 
13:00	58.1	58.1	58.1	60	44.3	4	9	270	0.00	29.745 
13:05	58.4	58.4	58.4	57	43.2	4	9	270	0.00	29.745 
13:10	58.3	58.3	58.3	58	43.6	4	6	270	0.00	29.745 
13:15	58.7	58.7	58.7	59	44.4	4	6	270	0.00	29.744 
13:20	59.0	59.0	59.0	54	42.4	4	10	270	0.00	29.744 
13:25	59.2	59.2	59.2	55	43.0	4	10	270	0.00	29.744 
13:30	59.3	59.3	59.3	55	43.1	4	10	248	0.00	29.748 
13:35	59.2	59.2	59.2	56	43.5	4	10	248	0.00	29.748 
13:40	59.5	59.5	59.5	52	41.9	4	10	315	0.00	29.748 
13:45	59.6	59.6	59.6	52	42.0	3	6	292	0.00	29.749 
13:50	59.3	59.3	59.3	51	41.2	4	7	315	0.00	29.749 
13:55	58.9	58.9	58.9	50	40.3	5	12	270	0.00	29.749 
14:00	59.5	59.5	59.5	51	41.4	4	12	315	0.00	29.751 
14:05	60.4	60.4	60.4	50	41.7	3	7	270	0.00	29.751 
14:10	61.2	61.2	61.2	48	41.3	3	7	270	0.00	29.751 
14:15	61.0	61.0	61.0	48	41.2	4	10	270	0.00	29.750 
14:20	61.2	61.2	61.2	48	41.3	4	6	270	0.00	29.750 
14:25	61.5	61.5	61.5	47	41.1	3	9	270	0.00	29.750 
14:30	62.1	62.1	62.1	45	40.5	4	8	270	0.00	29.746 
14:35	62.1	62.1	62.1	43	39.3	4	10	270	0.00	29.746 
14:40	62.6	62.6	62.6	43	39.8	3	6	270	0.00	29.746 
14:45	62.4	62.4	62.4	42	39.0	3	6	270	0.00	29.747 
14:50	62.3	62.3	62.3	41	38.3	4	7	270	0.00	29.747 
14:55	62.7	62.7	62.7	41	38.7	4	7	270	0.00	29.747 
15:00	62.9	62.9	62.9	40	38.2	3	10	270	0.00	29.750 
15:05	63.4	63.4	63.4	38	37.3	4	7	270	0.00	29.750 
15:10	63.4	63.4	63.4	36	36.0	4	7	270	0.00	29.750 
15:15	63.2	63.2	63.2	36	35.8	4	8	270	0.00	29.749 
15:20	63.7	63.7	63.7	37	36.9	4	10	292	0.00	29.749 
15:25	64.3	64.3	64.3	34	35.3	4	10	248	0.00	29.749 
15:30	64.3	64.3	64.3	35	36.1	4	9	270	0.00	29.755 
15:35	64.5	64.5	64.5	33	34.8	5	9	270	0.00	29.755 
15:40	64.5	64.5	64.5	34	35.5	4	9	270	0.00	29.755 
15:45	64.5	64.5	64.5	32	34.0	4	9	270	0.00	29.752 
15:50	63.7	63.7	63.7	31	32.5	4	8	270	0.00	29.752 
15:55	62.9	62.9	62.9	31	31.8	4	7	270	0.00	29.752 
16:00	62.6	62.6	62.6	31	31.5	3	6	270	0.00	29.759 
16:05	62.4	62.4	62.4	32	32.2	4	13	270	0.00	29.759 
16:10	62.6	62.6	62.6	30	30.7	4	7	270	0.00	29.759 
16:15	63.5	63.5	63.5	31	32.3	3	6	270	0.00	29.758 
16:20	64.2	64.2	64.2	31	32.9	3	7	270	0.00	29.758 
16:25	64.3	64.3	64.3	27	29.6	4	12	270	0.00	29.758 
16:30	64.5	64.5	64.5	28	30.7	6	10	270	0.00	29.760 
16:35	64.3	64.3	64.3	27	29.6	6	11	270	0.00	29.760 
16:40	64.2	64.2	64.2	27	29.5	6	12	292	0.00	29.760 
16:45	63.9	63.9	63.9	28	30.2	4	11	270	0.00	29.764 
16:50	64.0	64.0	64.0	29	31.1	4	14	270	0.00	29.764 
16:55	64.7	64.7	64.7	28	30.8	4	9	270	0.00	29.764 
17:00	64.8	64.8	64.8	30	32.6	3	6	270	0.00	29.764 
17:05	65.5	65.5	65.5	28	31.5	3	7	292	0.00	29.764 
17:10	65.5	65.5	65.5	30	33.2	3	9	248	0.00	29.764 
17:15	65.5	65.5	65.5	28	31.5	4	8	338	0.00	29.767 
17:20	64.8	64.8	64.8	27	30.0	4	8	270	0.00	29.767 
17:25	64.8	64.8	64.8	28	30.9	3	12	292	0.00	29.767 
17:30	64.7	64.7	64.7	28	30.8	4	11	292	0.00	29.775 
17:35	64.3	64.3	64.3	28	30.5	4	7	338	0.00	29.775 
17:40	64.0	64.0	64.0	29	31.1	3	7	315	0.00	29.775 
17:45	64.3	64.3	64.3	30	32.2	3	6	292	0.00	29.780 
17:50	64.5	64.5	64.5	31	33.2	3	6	315	0.00	29.780 
17:55	64.8	64.8	64.8	29	31.8	4	7	270	0.00	29.780 
18:00	64.5	64.5	64.5	29	31.5	4	12	270	0.00	29.779 
18:05	64.0	64.0	64.0	30	31.9	4	12	315	0.00	29.779 
18:10	63.5	63.5	63.5	32	33.1	3	7	270	0.00	29.779 
18:15	63.5	63.5	63.5	32	33.1	2	6	292	0.00	29.785 
18:20	63.7	63.7	63.7	32	33.3	2	4	292	0.00	29.785 
18:25	64.2	64.2	64.2	33	34.5	2	5	292	0.00	29.785 
18:30	64.3	64.3	64.3	33	34.6	2	5	315	0.00	29.782 
18:35	64.2	64.2	64.2	31	32.9	3	6	270	0.00	29.782 
18:40	63.7	63.7	63.7	32	33.3	3	6	292	0.00	29.782 
18:45	64.0	64.0	64.0	31	32.8	4	6	270	0.00	29.790 
18:50	64.2	64.2	64.2	31	32.9	4	7	270	0.00	29.790 
18:55	63.4	63.4	63.4	32	33.0	2	5	270	0.00	29.790 
19:00	63.1	63.1	63.1	34	34.3	1	4	270	0.00	29.793 
19:05	62.9	62.9	62.9	34	34.1	1	4	270	0.00	29.793 
19:10	62.9	62.9	62.9	33	33.4	2	4	315	0.00	29.793 
19:15	62.9	62.9	62.9	33	33.4	3	7	270	0.00	29.792 
19:20	62.7	62.7	62.7	34	33.9	2	5	270	0.00	29.792 
19:25	62.6	62.6	62.6	34	33.8	2	4	315	0.00	29.792 
19:30	62.7	62.7	62.7	34	33.9	2	8	338	0.00	29.798 
19:35	62.7	62.7	62.7	35	34.7	1	3	270	0.00	29.798 
19:40	62.4	62.4	62.4	35	34.4	2	4	270	0.00	29.798 
19:45	62.1	62.1	62.1	35	34.1	2	4	338	0.00	29.807 
19:50	62.1	62.1	62.1	35	34.1	3	5	315	0.00	29.807 
19:55	62.0	62.0	62.0	35	34.0	1	4	270	0.00	29.807 
20:00	61.8	61.8	61.8	35	33.9	1	2	270	0.00	29.809 
20:05	61.5	61.5	61.5	35	33.6	1	3	270	0.00	29.809 
20:10	61.3	61.3	61.3	36	34.1	1	2	270	0.00	29.809 
20:15	61.0	61.0	61.0	37	34.5	1	2	270	0.00	29.808 
20:20	60.7	60.7	60.7	38	34.9	0	2	270	0.00	29.808 
20:25	60.5	60.5	60.5	38	34.8	0	1	270	0.00	29.808 
20:30	60.4	60.4	60.4	39	35.3	0	1	270	0.00	29.812 
20:35	60.1	60.1	60.1	39	35.1	0	1	270	0.00	29.812 
20:40	59.8	59.8	59.8	39	34.8	0	1	270	0.00	29.812 
20:45	59.5	59.5	59.5	40	35.2	0	0	---	0.00	29.814 
20:50	59.0	59.0	59.0	41	35.3	0	0	---	0.00	29.814 
20:55	58.6	58.6	58.6	42	35.6	0	0	---	0.00	29.814 
21:00	58.3	58.3	58.3	43	35.9	0	0	---	0.00	29.820 
21:05	58.0	58.0	58.0	43	35.6	0	0	---	0.00	29.820 
21:10	57.8	57.8	57.8	43	35.5	0	0	---	0.00	29.820 
21:15	57.5	57.5	57.5	44	35.8	0	0	---	0.00	29.819 
21:20	57.2	57.2	57.2	44	35.5	0	0	---	0.00	29.819 
21:25	57.0	57.0	57.0	44	35.3	0	0	---	0.00	29.819 
21:30	56.7	56.7	56.7	45	35.6	0	0	---	0.00	29.824 
21:35	56.5	56.5	56.5	46	36.0	0	0	---	0.00	29.824 
21:40	56.3	56.3	56.3	45	35.2	0	0	---	0.00	29.824 
21:45	56.0	56.0	56.0	47	36.1	0	0	---	0.00	29.825 
21:50	55.7	55.7	55.7	47	35.8	0	0	---	0.00	29.825 
21:55	55.4	55.4	55.4	47	35.5	0	0	---	0.00	29.825 
22:00	55.0	55.0	55.0	48	35.7	0	0	---	0.00	29.827 
22:05	54.7	54.7	54.7	49	35.9	0	0	---	0.00	29.827 
22:10	54.2	54.2	54.2	49	35.5	0	0	---	0.00	29.827 
22:15	53.8	53.8	53.8	50	35.6	0	0	---	0.00	29.826 
22:20	53.3	53.3	53.3	51	35.6	0	0	---	0.00	29.826 
22:25	53.1	53.1	53.1	52	35.9	0	0	---	0.00	29.826 
22:30	52.8	52.8	52.8	53	36.1	0	0	---	0.00	29.833 
22:35	52.6	52.6	52.6	55	36.9	0	0	---	0.00	29.833 
22:40	52.5	52.5	52.5	56	37.3	0	0	---	0.00	29.833 
22:45	52.3	52.3	52.3	56	37.1	0	0	---	0.00	29.831 
22:50	52.2	52.2	52.2	56	37.0	0	0	---	0.00	29.831 
22:55	52.2	52.2	52.2	57	37.4	0	0	---	0.00	29.831 
23:00	52.3	52.3	52.3	57	37.5	0	0	---	0.00	29.829 
23:05	52.5	52.5	52.5	56	37.3	0	0	---	0.00	29.829 
23:10	52.8	52.8	52.8	56	37.5	0	0	---	0.00	29.829 
23:15	52.9	52.9	52.9	56	37.6	0	0	---	0.00	29.826 
23:20	52.9	52.9	52.9	56	37.6	0	0	---	0.00	29.826 
23:25	53.1	53.1	53.1	56	37.8	0	0	---	0.00	29.826 
23:30	53.3	53.3	53.3	56	38.0	0	0	---	0.00	29.826 
23:35	53.5	53.5	53.5	56	38.2	0	0	---	0.00	29.826 
23:40	53.9	53.9	53.9	53	37.2	0	0	---	0.00	29.826 
23:45	54.5	54.5	54.5	53	37.7	0	0	---	0.00	29.826 
23:50	55.1	55.1	55.1	50	36.8	0	1	270	0.00	29.826 
23:55	55.7	55.7	55.7	50	37.3	0	1	270	0.00	29.826 

CoCoRaHS
IN-AL-39
A2 Web Hosting
Creative Commons License
GoDaddy
search engine by freefind advanced

loaded 2018-11-15 17:58:04 • last modified 2010-11-18 10:43:29
Privacy PolicyDisclaimer
• wx.awcolley.com is powered by PmWiki v.2002016 •
• all content (unless otherwise noted) © 2018 A W Colley